createdAt,value
2023-04-07T00:01:03.368Z,10.90
2023-04-07T00:03:29.909Z,10.40
2023-04-07T00:05:56.493Z,11.20
2023-04-07T00:08:22.957Z,10.18
2023-04-07T00:10:49.400Z,10.68
2023-04-07T00:13:16.238Z,11.15
2023-04-07T00:15:42.655Z,10.68
2023-04-07T00:18:09.198Z,11.20
2023-04-07T00:20:35.723Z,9.90
2023-04-07T00:23:02.179Z,9.80
2023-04-07T00:25:28.572Z,9.57
2023-04-07T00:27:55.018Z,9.90
2023-04-07T00:30:21.500Z,8.93
2023-04-07T00:32:48.174Z,8.93
2023-04-07T00:35:14.665Z,10.05
2023-04-07T00:37:41.180Z,9.18
2023-04-07T00:40:08.307Z,9.65
2023-04-07T00:42:35.229Z,8.45
2023-04-07T00:45:01.738Z,9.30
2023-04-07T00:47:28.207Z,9.57
2023-04-07T00:49:54.761Z,9.15
2023-04-07T00:52:27.343Z,8.98
2023-04-07T00:54:57.258Z,8.55
2023-04-07T00:57:23.805Z,9.25
2023-04-07T00:59:53.369Z,9.35
2023-04-07T01:02:26.249Z,9.45
2023-04-07T01:05:07.632Z,9.10
2023-04-07T01:07:53.444Z,9.93
2023-04-07T01:10:27.690Z,9.73
2023-04-07T01:13:07.601Z,10.90
2023-04-07T01:15:35.475Z,10.00
2023-04-07T01:18:14.137Z,11.07
2023-04-07T01:20:43.175Z,10.95
2023-04-07T01:23:18.062Z,10.13
2023-04-07T01:25:55.097Z,10.98
2023-04-07T01:28:46.722Z,10.90
2023-04-07T01:31:15.657Z,11.45
2023-04-07T01:33:44.271Z,10.52
2023-04-07T01:36:12.390Z,11.80
2023-04-07T01:38:39.148Z,11.23
2023-04-07T01:41:06.202Z,10.32
2023-04-07T01:43:32.916Z,11.27
2023-04-07T01:45:59.546Z,10.40
2023-04-07T01:48:26.191Z,10.98
2023-04-07T01:50:52.900Z,11.60
2023-04-07T01:53:19.857Z,10.95
2023-04-07T01:55:46.442Z,10.82
2023-04-07T01:58:12.861Z,10.68
2023-04-07T02:00:39.587Z,10.63
2023-04-07T02:03:11.299Z,10.65
2023-04-07T02:05:40.367Z,10.55
2023-04-07T02:08:08.902Z,10.05
2023-04-07T02:10:37.464Z,11.27
2023-04-07T02:13:06.011Z,10.75
2023-04-07T02:15:33.439Z,10.20
2023-04-07T02:18:00.792Z,9.73
2023-04-07T02:20:28.488Z,8.73
2023-04-07T02:22:55.904Z,10.95
2023-04-07T02:25:29.988Z,10.45
2023-04-07T02:27:57.598Z,9.55
2023-04-07T02:30:24.334Z,9.20
2023-04-07T02:32:50.906Z,10.70
2023-04-07T02:35:17.675Z,10.55
2023-04-07T02:37:44.991Z,10.50
2023-04-07T02:40:11.880Z,9.50
2023-04-07T02:42:38.370Z,8.73
2023-04-07T02:45:06.043Z,9.30
2023-04-07T02:47:33.588Z,8.20
2023-04-07T02:50:00.288Z,8.38
2023-04-07T02:52:26.825Z,8.80
2023-04-07T02:54:53.277Z,7.32
2023-04-07T02:57:19.900Z,8.30
2023-04-07T02:59:46.375Z,8.75
2023-04-07T03:02:13.011Z,8.18
2023-04-07T03:04:39.689Z,7.88
2023-04-07T03:07:06.164Z,7.35
2023-04-07T03:09:32.679Z,7.25
2023-04-07T03:11:59.123Z,6.95
2023-04-07T03:14:25.590Z,6.60
2023-04-07T03:16:52.145Z,7.03
2023-04-07T03:19:18.745Z,6.68
2023-04-07T03:21:45.215Z,6.47
2023-04-07T03:24:11.764Z,6.13
2023-04-07T03:26:38.290Z,6.80
2023-04-07T03:29:04.878Z,6.53
2023-04-07T03:31:31.413Z,6.85
2023-04-07T03:33:57.841Z,7.03
2023-04-07T03:36:24.628Z,6.68
2023-04-07T03:38:51.339Z,6.80
2023-04-07T03:41:17.832Z,6.68
2023-04-07T03:43:44.330Z,7.10
2023-04-07T03:46:10.900Z,7.13
2023-04-07T03:48:37.553Z,7.20
2023-04-07T03:51:04.031Z,7.20
2023-04-07T03:53:30.721Z,7.22
2023-04-07T03:55:57.182Z,8.00
2023-04-07T03:58:23.571Z,7.68
2023-04-07T04:00:50.011Z,6.97
2023-04-07T04:03:16.779Z,7.25
2023-04-07T04:05:43.305Z,7.85
2023-04-07T04:08:09.788Z,7.25
2023-04-07T04:10:36.440Z,6.45
2023-04-07T04:13:06.568Z,7.55
2023-04-07T04:15:32.971Z,7.75
2023-04-07T04:17:59.414Z,7.22
2023-04-07T04:20:25.892Z,6.47
2023-04-07T04:22:52.439Z,6.70
2023-04-07T04:25:20.158Z,6.55
2023-04-07T04:27:46.641Z,5.90
2023-04-07T04:30:13.130Z,5.35
2023-04-07T04:32:39.706Z,5.43
2023-04-07T04:35:06.954Z,5.25
2023-04-07T04:37:33.443Z,5.43
2023-04-07T04:39:59.894Z,5.43
2023-04-07T04:42:27.950Z,6.13
2023-04-07T04:44:54.471Z,5.35
2023-04-07T04:47:21.388Z,4.20
2023-04-07T04:49:47.957Z,4.47
2023-04-07T04:52:14.398Z,4.40
2023-04-07T04:54:40.834Z,4.55
2023-04-07T04:57:07.269Z,4.88
2023-04-07T04:59:34.104Z,4.30
2023-04-07T05:02:00.686Z,4.28
2023-04-07T05:04:28.383Z,4.47
2023-04-07T05:06:55.015Z,4.30
2023-04-07T05:09:21.590Z,4.80
2023-04-07T05:11:48.048Z,4.65
2023-04-07T05:14:14.445Z,4.20
2023-04-07T05:16:41.411Z,4.18
2023-04-07T05:19:07.962Z,4.88
2023-04-07T05:21:34.399Z,4.30
2023-04-07T05:24:00.857Z,4.82
2023-04-07T05:26:27.270Z,4.38
2023-04-07T05:28:53.714Z,4.43
2023-04-07T05:31:20.320Z,4.95
2023-04-07T05:33:46.903Z,4.50
2023-04-07T05:36:13.494Z,4.47
2023-04-07T05:38:39.987Z,5.05
2023-04-07T05:41:06.449Z,5.18
2023-04-07T05:43:32.850Z,5.03
2023-04-07T05:45:59.418Z,4.72
2023-04-07T05:48:26.166Z,5.82
2023-04-07T05:50:52.642Z,5.05
2023-04-07T05:53:19.119Z,4.70
2023-04-07T05:55:45.582Z,4.80
2023-04-07T05:58:12.040Z,4.53
2023-04-07T06:00:38.468Z,4.68
2023-04-07T06:03:05.000Z,5.10
2023-04-07T06:05:31.589Z,4.38
2023-04-07T06:07:58.101Z,4.55
2023-04-07T06:10:24.555Z,4.93
2023-04-07T06:12:51.132Z,5.18
2023-04-07T06:15:17.739Z,4.80
2023-04-07T06:17:45.816Z,4.97
2023-04-07T06:20:12.407Z,4.75
2023-04-07T06:22:39.076Z,4.63
2023-04-07T06:25:07.013Z,4.70
2023-04-07T06:27:33.598Z,4.30
2023-04-07T06:30:00.372Z,4.78
2023-04-07T06:32:26.833Z,5.18
2023-04-07T06:34:53.328Z,5.25
2023-04-07T06:37:19.836Z,4.97
2023-04-07T06:39:46.265Z,4.90
2023-04-07T06:42:12.670Z,4.88
2023-04-07T06:44:39.081Z,4.65
2023-04-07T06:47:05.512Z,5.05
2023-04-07T06:49:31.930Z,4.57
2023-04-07T06:51:58.414Z,5.03
2023-04-07T06:54:24.905Z,5.10
2023-04-07T06:56:53.459Z,5.55
2023-04-07T06:59:20.638Z,4.97
2023-04-07T07:01:48.010Z,5.38
2023-04-07T07:04:14.757Z,4.57
2023-04-07T07:06:41.298Z,4.93
2023-04-07T07:09:07.777Z,5.45
2023-04-07T07:11:34.803Z,5.93
2023-04-07T07:14:01.271Z,5.82
2023-04-07T07:16:28.944Z,5.55
2023-04-07T07:18:55.479Z,5.43
2023-04-07T07:21:21.919Z,5.57
2023-04-07T07:23:48.854Z,5.22
2023-04-07T07:26:15.603Z,5.25
2023-04-07T07:28:42.087Z,4.85
2023-04-07T07:31:13.310Z,5.57
2023-04-07T07:33:41.335Z,5.13
2023-04-07T07:36:08.511Z,4.63
2023-04-07T07:38:37.022Z,4.18
2023-04-07T07:41:04.280Z,4.18
2023-04-07T07:43:30.719Z,4.80
2023-04-07T07:45:57.148Z,4.50
2023-04-07T07:48:23.548Z,4.72
2023-04-07T07:50:50.637Z,4.60
2023-04-07T07:53:17.058Z,4.22
2023-04-07T07:55:43.659Z,4.47
2023-04-07T07:58:10.073Z,4.00
2023-04-07T08:00:36.491Z,3.83
2023-04-07T08:03:03.000Z,3.45
2023-04-07T08:05:29.702Z,3.55
2023-04-07T08:07:56.247Z,3.67
2023-04-07T08:10:25.042Z,3.90
2023-04-07T08:12:51.589Z,3.50
2023-04-07T08:15:18.013Z,3.92
2023-04-07T08:17:44.416Z,3.05
2023-04-07T08:20:11.774Z,4.00
2023-04-07T08:22:38.286Z,3.42
2023-04-07T08:25:05.337Z,3.60
2023-04-07T08:27:31.819Z,3.13
2023-04-07T08:30:02.908Z,3.13
2023-04-07T08:32:40.545Z,3.67
2023-04-07T08:35:07.262Z,3.22
2023-04-07T08:37:34.390Z,3.80
2023-04-07T08:40:01.680Z,3.30
2023-04-07T08:42:30.025Z,3.08
2023-04-07T08:45:00.201Z,3.28
2023-04-07T08:47:28.352Z,3.58
2023-04-07T08:49:57.230Z,3.60
2023-04-07T08:52:27.558Z,3.42
2023-04-07T08:54:54.204Z,2.70
2023-04-07T08:57:20.983Z,3.55
2023-04-07T08:59:49.040Z,3.60
2023-04-07T09:02:15.794Z,3.00
2023-04-07T09:04:44.094Z,3.55
2023-04-07T09:07:10.824Z,3.03
2023-04-07T09:09:37.213Z,3.33
2023-04-07T09:12:04.013Z,3.17
2023-04-07T09:14:30.561Z,3.53
2023-04-07T09:16:57.213Z,3.00
2023-04-07T09:19:26.709Z,2.80
2023-04-07T09:21:53.429Z,3.88
2023-04-07T09:24:26.173Z,3.00
2023-04-07T09:27:16.551Z,2.97
2023-04-07T09:29:45.385Z,3.22
2023-04-07T09:32:13.374Z,2.80
2023-04-07T09:34:41.458Z,2.47
2023-04-07T09:37:11.363Z,3.13
2023-04-07T09:42:15.265Z,2.40
2023-04-07T09:44:41.985Z,3.30
2023-04-07T09:47:08.432Z,3.03
2023-04-07T09:49:49.049Z,2.47
2023-04-07T09:52:15.524Z,2.55
2023-04-07T09:54:42.098Z,2.38
2023-04-07T09:57:11.056Z,2.53
2023-04-07T09:59:39.163Z,2.55
2023-04-07T10:02:06.365Z,2.92
2023-04-07T10:04:33.008Z,2.55
2023-04-07T10:07:00.345Z,2.47
2023-04-07T10:09:27.889Z,2.85
2023-04-07T10:11:56.713Z,2.33
2023-04-07T10:14:27.116Z,2.33
2023-04-07T10:16:54.629Z,2.50
2023-04-07T10:19:21.713Z,2.58
2023-04-07T10:21:51.560Z,2.40
2023-04-07T10:27:04.576Z,2.42
2023-04-07T10:29:35.443Z,2.53
2023-04-07T10:32:02.369Z,2.63
2023-04-07T10:34:48.709Z,3.20
2023-04-07T10:37:17.704Z,2.72
2023-04-07T10:39:44.381Z,2.08
2023-04-07T10:42:38.924Z,2.67
2023-04-07T10:45:06.532Z,2.45
2023-04-07T10:47:33.067Z,2.63
2023-04-07T10:50:16.886Z,2.03
2023-04-07T10:52:43.960Z,2.33
2023-04-07T10:55:28.924Z,2.65
2023-04-07T10:58:15.197Z,2.45
2023-04-07T11:00:42.196Z,2.55
2023-04-07T11:03:14.874Z,2.60
2023-04-07T11:05:42.116Z,2.63
2023-04-07T11:08:08.869Z,2.13
2023-04-07T11:10:35.730Z,2.50
2023-04-07T11:13:04.526Z,2.70
2023-04-07T11:15:31.600Z,2.40
2023-04-07T11:18:17.567Z,2.85
2023-04-07T11:20:46.157Z,2.80
2023-04-07T11:23:13.795Z,2.95
2023-04-07T11:25:42.241Z,3.10
2023-04-07T11:28:09.995Z,2.83
2023-04-07T11:30:36.592Z,2.50
2023-04-07T11:33:03.471Z,2.47
2023-04-07T11:35:30.097Z,2.38
2023-04-07T11:37:58.792Z,2.25
2023-04-07T11:40:35.579Z,2.53
2023-04-07T11:43:02.611Z,2.50
2023-04-07T11:45:29.148Z,2.20
2023-04-07T11:47:55.846Z,2.13
2023-04-07T11:50:42.525Z,2.42
2023-04-07T11:53:09.039Z,2.58
2023-04-07T11:55:35.526Z,2.42
2023-04-07T11:58:10.689Z,2.65
2023-04-07T12:00:37.478Z,2.42
2023-04-07T12:03:13.309Z,2.85
2023-04-07T12:05:44.153Z,2.45
2023-04-07T12:08:10.638Z,2.70
2023-04-07T12:10:40.467Z,3.00
2023-04-07T12:15:35.433Z,2.58
2023-04-07T12:18:02.860Z,2.50
2023-04-07T12:20:29.728Z,2.35
2023-04-07T12:22:56.242Z,1.88
2023-04-07T12:25:22.793Z,2.33
2023-04-07T12:27:49.214Z,1.98
2023-04-07T12:30:15.739Z,2.35
2023-04-07T12:32:42.657Z,2.53
2023-04-07T12:35:09.155Z,2.67
2023-04-07T12:37:35.750Z,2.40
2023-04-07T12:40:02.317Z,2.95
2023-04-07T12:42:28.826Z,3.00
2023-04-07T12:44:55.480Z,3.30
2023-04-07T12:47:22.084Z,3.42
2023-04-07T12:49:49.897Z,3.40
2023-04-07T12:52:16.916Z,3.00
2023-04-07T12:54:44.404Z,3.08
2023-04-07T12:57:11.235Z,2.80
2023-04-07T12:59:37.714Z,2.92
2023-04-07T13:02:04.348Z,3.20
2023-04-07T13:04:31.498Z,3.80
2023-04-07T13:06:58.310Z,4.03
2023-04-07T13:09:25.543Z,2.72
2023-04-07T13:11:51.959Z,2.95
2023-04-07T13:14:18.462Z,2.83
2023-04-07T13:16:44.956Z,3.10
2023-04-07T13:19:11.442Z,2.90
2023-04-07T13:24:07.542Z,3.05
2023-04-07T13:26:34.754Z,2.90
2023-04-07T13:29:01.252Z,2.88
2023-04-07T13:31:28.615Z,3.40
2023-04-07T13:33:55.012Z,3.25
2023-04-07T13:36:23.421Z,3.05
2023-04-07T13:38:50.052Z,3.20
2023-04-07T13:41:16.529Z,2.97
2023-04-07T13:43:42.958Z,2.92
2023-04-07T13:48:46.852Z,2.95
2023-04-07T13:51:13.324Z,2.80
2023-04-07T13:53:39.769Z,3.30
2023-04-07T13:56:08.436Z,2.72
2023-04-07T13:58:35.345Z,2.45
2023-04-07T14:01:02.114Z,3.10
2023-04-07T14:03:28.613Z,2.90
2023-04-07T14:05:55.448Z,3.53
2023-04-07T14:08:23.651Z,4.35
2023-04-07T14:10:50.130Z,4.30
2023-04-07T14:13:16.772Z,4.63
2023-04-07T14:15:43.217Z,4.45
2023-04-07T14:18:09.841Z,4.30
2023-04-07T14:20:36.800Z,4.10
2023-04-07T14:23:03.295Z,4.05
2023-04-07T14:25:29.766Z,3.95
2023-04-07T14:27:56.332Z,3.80
2023-04-07T14:30:22.835Z,3.38
2023-04-07T14:32:49.394Z,4.32
2023-04-07T14:35:16.119Z,4.30
2023-04-07T14:37:42.602Z,3.85
2023-04-07T14:40:09.331Z,4.60
2023-04-07T14:42:36.987Z,4.70
2023-04-07T14:45:04.436Z,4.55
2023-04-07T14:47:31.492Z,4.32
2023-04-07T14:49:58.006Z,4.32
2023-04-07T14:52:24.692Z,5.00
2023-04-07T14:54:51.117Z,4.03
2023-04-07T14:57:17.523Z,4.47
2023-04-07T14:59:43.981Z,4.38
2023-04-07T15:02:10.587Z,4.20
2023-04-07T15:04:37.287Z,4.50
2023-04-07T15:07:03.972Z,5.00
2023-04-07T15:09:31.174Z,4.93
2023-04-07T15:11:57.665Z,5.47
2023-04-07T15:14:24.048Z,4.75
2023-04-07T15:16:50.541Z,5.43
2023-04-07T15:19:17.012Z,5.03
2023-04-07T15:21:43.395Z,4.90
2023-04-07T15:24:09.832Z,5.10
2023-04-07T15:26:36.311Z,5.32
2023-04-07T15:29:02.815Z,4.80
2023-04-07T15:31:29.930Z,5.07
2023-04-07T15:33:56.576Z,14.05
2023-04-07T15:36:23.038Z,6.10
2023-04-07T15:38:49.455Z,6.30
2023-04-07T15:41:16.569Z,5.50
2023-04-07T15:43:43.033Z,5.85
2023-04-07T15:46:09.555Z,5.43
2023-04-07T15:48:36.012Z,6.40
2023-04-07T15:51:02.604Z,5.53
2023-04-07T15:53:29.625Z,5.90
2023-04-07T15:55:56.132Z,6.65
2023-04-07T15:58:22.605Z,6.68
2023-04-07T16:00:49.142Z,6.97
2023-04-07T16:03:15.911Z,8.55
2023-04-07T16:05:42.536Z,8.20
2023-04-07T16:08:08.965Z,6.88
2023-04-07T16:10:35.536Z,8.15
2023-04-07T16:13:02.625Z,7.63
2023-04-07T16:15:40.225Z,7.78
2023-04-07T16:18:10.024Z,8.23
2023-04-07T16:20:36.623Z,8.13
2023-04-07T16:23:03.080Z,8.13
2023-04-07T16:25:29.790Z,9.60
2023-04-07T16:27:56.382Z,9.35
2023-04-07T16:30:24.984Z,9.25
2023-04-07T16:32:51.519Z,9.77
2023-04-07T16:35:17.930Z,9.88
2023-04-07T16:37:46.548Z,9.68
2023-04-07T16:40:13.474Z,8.88
2023-04-07T16:42:39.975Z,8.93
2023-04-07T16:45:06.878Z,9.80
2023-04-07T16:47:33.417Z,8.63
2023-04-07T16:49:59.934Z,10.48
2023-04-07T16:52:26.549Z,8.90
2023-04-07T16:54:52.946Z,8.82
2023-04-07T16:57:19.391Z,9.13
2023-04-07T16:59:46.338Z,9.88
2023-04-07T17:02:16.137Z,9.90
2023-04-07T17:04:43.490Z,10.10
2023-04-07T17:07:10.953Z,9.68
2023-04-07T17:09:37.391Z,9.45
2023-04-07T17:12:04.065Z,10.43
2023-04-07T17:14:30.609Z,10.57
2023-04-07T17:16:57.178Z,10.15
2023-04-07T17:19:23.708Z,10.63
2023-04-07T17:21:50.223Z,10.60
2023-04-07T17:24:16.871Z,11.27
2023-04-07T17:26:46.475Z,11.05
2023-04-07T17:29:13.645Z,10.50
2023-04-07T17:31:40.120Z,10.75
2023-04-07T17:34:06.722Z,11.10
2023-04-07T17:36:33.756Z,12.18
2023-04-07T17:39:01.285Z,12.13
2023-04-07T17:41:28.433Z,12.20
2023-04-07T17:43:54.929Z,12.50
2023-04-07T17:46:22.886Z,12.13
2023-04-07T17:48:50.773Z,12.05
2023-04-07T17:51:17.703Z,12.63
2023-04-07T17:53:44.273Z,12.00
2023-04-07T17:56:10.947Z,12.80
2023-04-07T17:58:37.538Z,11.80
2023-04-07T18:01:04.243Z,11.77
2023-04-07T18:03:30.834Z,12.57
2023-04-07T18:05:57.465Z,12.95
2023-04-07T18:08:24.923Z,12.27
2023-04-07T18:10:52.236Z,13.07
2023-04-07T18:13:18.650Z,13.35
2023-04-07T18:15:45.410Z,12.60
2023-04-07T18:18:12.281Z,13.02
2023-04-07T18:20:38.874Z,13.40
2023-04-07T18:23:05.656Z,12.95
2023-04-07T18:25:32.485Z,13.85
2023-04-07T18:27:59.064Z,14.10
2023-04-07T18:30:25.506Z,13.93
2023-04-07T18:32:52.131Z,14.80
2023-04-07T18:35:18.539Z,14.30
2023-04-07T18:37:44.946Z,13.43
2023-04-07T18:40:11.883Z,14.45
2023-04-07T18:42:38.421Z,14.25
2023-04-07T18:45:05.319Z,14.55
2023-04-07T18:47:32.027Z,14.55
2023-04-07T18:49:58.588Z,15.52
2023-04-07T18:52:25.963Z,15.55
2023-04-07T18:54:52.412Z,14.57
2023-04-07T18:57:18.995Z,15.15
2023-04-07T18:59:45.844Z,13.93
2023-04-07T19:02:12.514Z,14.57
2023-04-07T19:04:39.089Z,15.10
2023-04-07T19:07:05.829Z,15.52
2023-04-07T19:09:33.119Z,15.25
2023-04-07T19:11:59.737Z,16.05
2023-04-07T19:14:26.189Z,15.65
2023-04-07T19:16:52.820Z,17.92
2023-04-07T19:19:19.465Z,16.10
2023-04-07T19:21:45.907Z,17.17
2023-04-07T19:24:12.412Z,18.13
2023-04-07T19:26:38.902Z,16.38
2023-04-07T19:29:05.640Z,16.55
2023-04-07T19:31:32.154Z,15.57
2023-04-07T19:33:58.628Z,15.93
2023-04-07T19:36:26.520Z,17.25
2023-04-07T19:38:53.106Z,17.27
2023-04-07T19:41:19.569Z,17.52
2023-04-07T19:43:46.119Z,17.35
2023-04-07T19:46:12.695Z,16.92
2023-04-07T19:48:40.052Z,17.65
2023-04-07T19:51:07.404Z,18.05
2023-04-07T19:53:34.071Z,19.35
2023-04-07T19:56:02.085Z,18.98
2023-04-07T19:58:28.505Z,18.70
2023-04-07T20:00:55.174Z,19.17
2023-04-07T20:03:22.101Z,18.48
2023-04-07T20:05:49.506Z,18.63
2023-04-07T20:08:16.439Z,19.50
2023-04-07T20:10:42.965Z,21.05
2023-04-07T20:13:09.670Z,19.95
2023-04-07T20:15:36.658Z,18.95
2023-04-07T20:18:03.679Z,18.33
2023-04-07T20:20:30.286Z,18.83
2023-04-07T20:22:56.838Z,19.02
2023-04-07T20:25:23.415Z,20.20
2023-04-07T20:27:50.434Z,19.77
2023-04-07T20:30:16.879Z,19.50
2023-04-07T20:32:43.858Z,20.92
2023-04-07T20:35:12.043Z,20.83
2023-04-07T20:37:38.602Z,21.63
2023-04-07T20:40:06.286Z,22.52
2023-04-07T20:42:32.818Z,21.58
2023-04-07T20:45:03.619Z,19.77
2023-04-07T20:47:31.317Z,20.85
2023-04-07T20:49:58.678Z,21.77
2023-04-07T20:52:27.003Z,21.08
2023-04-07T20:54:53.603Z,21.23
2023-04-07T20:57:20.117Z,21.40
2023-04-07T20:59:46.636Z,20.15
2023-04-07T21:02:13.211Z,19.92
2023-04-07T21:04:39.961Z,19.58
2023-04-07T21:07:06.526Z,20.25
2023-04-07T21:09:33.009Z,20.42
2023-04-07T21:12:01.962Z,19.70
2023-04-07T21:14:28.549Z,21.02
2023-04-07T21:16:55.268Z,20.25
2023-04-07T21:19:22.858Z,20.20
2023-04-07T21:21:49.295Z,20.40
2023-04-07T21:24:15.722Z,21.85
2023-04-07T21:26:42.217Z,20.40
2023-04-07T21:29:08.739Z,19.20
2023-04-07T21:31:35.324Z,18.52
2023-04-07T21:34:01.841Z,17.60
2023-04-07T21:36:28.553Z,18.25
2023-04-07T21:38:54.958Z,16.85
2023-04-07T21:41:21.376Z,17.58
2023-04-07T21:43:47.812Z,16.65
2023-04-07T21:46:14.369Z,17.83
2023-04-07T21:48:40.870Z,17.38
2023-04-07T21:51:08.054Z,17.35
2023-04-07T21:53:37.418Z,19.23
2023-04-07T21:56:04.099Z,17.42
2023-04-07T21:58:30.793Z,23.08
2023-04-07T22:00:57.333Z,18.00
2023-04-07T22:03:24.721Z,18.08
2023-04-07T22:05:51.584Z,18.17
2023-04-07T22:08:18.140Z,17.88
2023-04-07T22:10:44.706Z,16.60
2023-04-07T22:13:11.165Z,17.00
2023-04-07T22:15:37.551Z,16.45
2023-04-07T22:18:04.871Z,16.42
2023-04-07T22:20:31.493Z,16.15
2023-04-07T22:22:58.011Z,15.45
2023-04-07T22:25:25.407Z,14.77
2023-04-07T22:27:52.724Z,16.38
2023-04-07T22:30:19.965Z,14.48
2023-04-07T22:32:46.649Z,14.75
2023-04-07T22:35:13.134Z,15.07
2023-04-07T22:37:39.521Z,17.27
2023-04-07T22:40:06.590Z,17.63
2023-04-07T22:42:33.077Z,15.93
2023-04-07T22:44:59.660Z,16.10
2023-04-07T22:47:26.562Z,15.98
2023-04-07T22:49:53.075Z,15.50
2023-04-07T22:52:19.556Z,16.15
2023-04-07T22:54:46.247Z,16.52
2023-04-07T22:57:12.681Z,15.30
2023-04-07T22:59:39.113Z,15.63
2023-04-07T23:02:05.615Z,15.00
2023-04-07T23:04:32.263Z,14.88
2023-04-07T23:06:58.720Z,13.32
2023-04-07T23:09:25.671Z,13.20
2023-04-07T23:11:52.081Z,13.60
2023-04-07T23:14:18.634Z,14.63
2023-04-07T23:16:45.227Z,17.48
2023-04-07T23:19:15.039Z,15.70
2023-04-07T23:21:42.672Z,14.43
2023-04-07T23:24:09.523Z,16.38
2023-04-07T23:26:36.068Z,14.23
2023-04-07T23:29:03.638Z,13.60
2023-04-07T23:31:30.256Z,13.60
2023-04-07T23:33:58.916Z,13.70
2023-04-07T23:36:26.356Z,13.90
2023-04-07T23:38:54.921Z,13.88
2023-04-07T23:41:21.583Z,13.70
2023-04-07T23:43:48.011Z,14.75
2023-04-07T23:46:14.505Z,13.23
2023-04-07T23:48:41.688Z,14.27
2023-04-07T23:51:08.132Z,13.90
2023-04-07T23:53:34.585Z,12.77
2023-04-07T23:56:01.216Z,13.25
2023-04-07T23:58:27.690Z,16.70
